Greyabbey, United Kingdom
Current Conditions -  °F | °C
As of 11:20 AM on Tuesday 21 Oct 2014 (Local Time) from EGAC Reporting Station
Rain Showers Rain Showers  
Wind Chill: 50°   Ceiling: Unl
Heat Index: 50°   Visibility: 6mi
Dew Point: 41°   Wind: 22mph
Humidity: 71%   Direction: 290°WNW
Pressure: 29.65"   Gusts: 37mph
Location:  54.53°N, 5.57°W
Report Text: EGAC 211020Z 29019G32KT 9999 -SHRA FEW020 10/05 Q1004
Loading
Personal Weather Stations






























Interactive Weather Map
Tropical Storm Tracking
New forecast layout! Learn more

10-Day Weather Forecast

Advertisements
Track Severe Weather on mobile